createdAt,value
2017-12-26T00:00:06.060Z,97316.16
2017-12-26T00:01:08.998Z,97320.91
2017-12-26T00:02:11.881Z,97317.00
2017-12-26T00:03:14.841Z,97316.19
2017-12-26T00:04:17.860Z,97319.66
2017-12-26T00:05:20.855Z,97324.00
2017-12-26T00:06:24.429Z,97323.52
2017-12-26T00:07:27.409Z,97313.33
2017-12-26T00:08:30.432Z,97321.59
2017-12-26T00:09:33.469Z,97324.27
2017-12-26T00:10:36.597Z,97324.68
2017-12-26T00:11:39.660Z,97316.77
2017-12-26T00:12:42.913Z,97314.63
2017-12-26T00:13:45.931Z,97309.23
2017-12-26T00:14:48.866Z,97316.35
2017-12-26T00:15:52.096Z,97306.20
2017-12-26T00:16:55.124Z,97310.79
2017-12-26T00:17:58.033Z,97296.73
2017-12-26T00:19:01.345Z,97290.30
2017-12-26T00:20:04.320Z,97296.16
2017-12-26T00:21:07.315Z,97289.66
2017-12-26T00:22:10.275Z,97287.37
2017-12-26T00:23:13.232Z,97286.51
2017-12-26T00:24:16.176Z,97274.83
2017-12-26T00:25:19.799Z,97276.94
2017-12-26T00:26:22.708Z,97275.21
2017-12-26T00:27:25.656Z,97271.00
2017-12-26T00:28:28.635Z,97269.01
2017-12-26T00:29:31.581Z,97271.41
2017-12-26T00:30:35.413Z,97271.59
2017-12-26T00:31:38.634Z,97279.39
2017-12-26T00:32:41.557Z,97267.02
2017-12-26T00:33:44.721Z,97264.00
2017-12-26T00:34:47.641Z,97276.12
2017-12-26T00:35:50.609Z,97266.81
2017-12-26T00:36:53.535Z,97260.19
2017-12-26T00:37:56.947Z,97255.41
2017-12-26T00:38:59.891Z,97252.30
2017-12-26T00:40:02.850Z,97249.61
2017-12-26T00:41:06.179Z,97253.84
2017-12-26T00:42:09.199Z,97253.88
2017-12-26T00:43:12.242Z,97252.97
2017-12-26T00:44:15.437Z,97249.70
2017-12-26T00:45:18.334Z,97246.70
2017-12-26T00:46:21.241Z,97240.72
2017-12-26T00:47:24.371Z,97233.53
2017-12-26T00:48:27.341Z,97236.34
2017-12-26T00:49:30.281Z,97232.82
2017-12-26T00:50:33.548Z,97225.29
2017-12-26T00:51:36.532Z,97222.60
2017-12-26T00:52:39.470Z,97221.70
2017-12-26T00:53:42.530Z,97212.88
2017-12-26T00:54:45.448Z,97214.73
2017-12-26T00:55:48.433Z,97211.89
2017-12-26T00:56:52.543Z,97206.36
2017-12-26T00:57:55.440Z,97211.25
2017-12-26T00:58:58.434Z,97202.75
2017-12-26T01:00:01.423Z,97210.58
2017-12-26T01:01:04.318Z,97198.52
2017-12-26T01:02:07.331Z,97201.23
2017-12-26T01:03:10.431Z,97202.77
2017-12-26T01:04:13.359Z,97205.69
2017-12-26T01:05:16.302Z,97201.63
2017-12-26T01:06:19.371Z,97207.02
2017-12-26T01:07:22.278Z,97204.94
2017-12-26T01:08:25.503Z,97205.02
2017-12-26T01:09:28.843Z,97201.20
2017-12-26T01:10:31.787Z,97204.92
2017-12-26T01:11:34.739Z,97204.78
2017-12-26T01:12:37.664Z,97190.69
2017-12-26T01:13:40.498Z,97195.08
2017-12-26T01:14:43.487Z,97190.33
2017-12-26T01:15:46.708Z,97195.61
2017-12-26T01:16:49.629Z,97195.35
2017-12-26T01:17:52.563Z,97186.39
2017-12-26T01:18:55.489Z,97183.03
2017-12-26T01:19:58.410Z,97179.77
2017-12-26T01:21:01.343Z,97182.08
2017-12-26T01:22:04.545Z,97185.02
2017-12-26T01:23:07.494Z,97181.80
2017-12-26T01:24:10.407Z,97175.32
2017-12-26T01:25:13.351Z,97182.77
2017-12-26T01:26:16.270Z,97175.37
2017-12-26T01:27:19.171Z,97172.95
2017-12-26T01:28:22.426Z,97173.00
2017-12-26T01:29:25.338Z,97170.02
2017-12-26T01:30:28.312Z,97167.60
2017-12-26T01:31:31.238Z,97164.75
2017-12-26T01:32:34.244Z,97162.41
2017-12-26T01:33:37.142Z,97169.32
2017-12-26T01:34:40.481Z,97162.32
2017-12-26T01:35:43.423Z,97159.02
2017-12-26T01:36:46.388Z,97154.97
2017-12-26T01:37:49.327Z,97158.16
2017-12-26T01:38:52.323Z,97158.69
2017-12-26T01:39:55.207Z,97162.95
2017-12-26T01:40:58.451Z,97159.25
2017-12-26T01:42:01.293Z,97155.83
2017-12-26T01:43:04.108Z,97155.70
2017-12-26T01:44:07.036Z,97151.00
2017-12-26T01:45:09.939Z,97157.66
2017-12-26T01:46:12.848Z,97158.16
2017-12-26T01:47:16.093Z,97151.29
2017-12-26T01:48:19.018Z,97145.80
2017-12-26T01:49:21.926Z,97149.63
2017-12-26T01:50:24.884Z,97147.20
2017-12-26T01:51:27.870Z,97142.44
2017-12-26T01:52:30.819Z,97138.23
2017-12-26T01:53:34.682Z,97129.34
2017-12-26T01:54:37.635Z,97130.59
2017-12-26T01:55:40.499Z,97126.38
2017-12-26T01:56:43.369Z,97128.66
2017-12-26T01:57:46.240Z,97121.27
2017-12-26T01:58:49.109Z,97117.93
2017-12-26T01:59:52.259Z,97121.56
2017-12-26T02:00:55.201Z,97122.44
2017-12-26T02:01:58.188Z,97114.91
2017-12-26T02:03:01.072Z,97110.65
2017-12-26T02:04:04.000Z,97112.83
2017-12-26T02:05:06.934Z,97109.09
2017-12-26T02:06:10.152Z,97114.61
2017-12-26T02:07:13.105Z,97109.20
2017-12-26T02:08:16.984Z,97105.27
2017-12-26T02:09:19.907Z,97107.01
2017-12-26T02:10:22.862Z,97102.72
2017-12-26T02:11:25.789Z,97108.71
2017-12-26T02:12:29.791Z,97117.45
2017-12-26T02:13:32.706Z,97117.64
2017-12-26T02:14:35.656Z,97102.75
2017-12-26T02:15:38.563Z,97103.05
2017-12-26T02:16:41.517Z,97099.27
2017-12-26T02:17:44.412Z,97103.17
2017-12-26T02:18:47.615Z,97101.44
2017-12-26T02:19:50.533Z,97103.72
2017-12-26T02:20:53.491Z,97106.99
2017-12-26T02:21:56.437Z,97107.08
2017-12-26T02:22:59.368Z,97099.84
2017-12-26T02:24:02.314Z,97095.24
2017-12-26T02:25:05.489Z,97103.91
2017-12-26T02:26:08.390Z,97096.33
2017-12-26T02:27:11.329Z,97091.75
2017-12-26T02:28:14.202Z,97091.19
2017-12-26T02:29:17.083Z,97084.48
2017-12-26T02:30:19.932Z,97078.96
2017-12-26T02:31:23.195Z,97082.13
2017-12-26T02:32:26.520Z,97082.38
2017-12-26T02:33:29.470Z,97083.53
2017-12-26T02:34:32.433Z,97072.52
2017-12-26T02:35:35.309Z,97076.26
2017-12-26T02:36:38.213Z,97080.69
2017-12-26T02:37:41.423Z,97075.89
2017-12-26T02:38:44.405Z,97073.42
2017-12-26T02:39:47.337Z,97076.08
2017-12-26T02:40:50.300Z,97074.14
2017-12-26T02:41:53.223Z,97074.77
2017-12-26T02:42:56.159Z,97070.96
2017-12-26T02:43:59.376Z,97063.63
2017-12-26T02:45:02.324Z,97062.28
2017-12-26T02:46:05.232Z,97060.53
2017-12-26T02:47:08.146Z,97050.19
2017-12-26T02:48:11.087Z,97050.25
2017-12-26T02:49:13.983Z,97044.40
2017-12-26T02:50:34.712Z,97051.09
2017-12-26T02:51:37.573Z,97039.44
2017-12-26T02:52:40.527Z,97029.55
2017-12-26T02:53:43.658Z,97040.23
2017-12-26T02:54:46.617Z,97034.23
2017-12-26T02:55:50.287Z,97033.31
2017-12-26T02:56:53.515Z,97025.70
2017-12-26T02:57:56.485Z,97027.90
2017-12-26T02:58:59.440Z,97019.58
2017-12-26T03:00:02.420Z,97023.62
2017-12-26T03:01:05.362Z,97024.14
2017-12-26T03:02:08.406Z,97013.94
2017-12-26T03:03:11.543Z,97017.78
2017-12-26T03:04:14.433Z,97015.22
2017-12-26T03:05:17.410Z,97014.92
2017-12-26T03:06:20.372Z,97020.25
2017-12-26T03:07:23.247Z,97012.11
2017-12-26T03:08:26.222Z,97011.39
2017-12-26T03:09:29.405Z,97015.09
2017-12-26T03:10:32.179Z,97003.72
2017-12-26T03:11:34.962Z,97013.02
2017-12-26T03:12:37.756Z,97005.42
2017-12-26T03:13:40.630Z,97005.16
2017-12-26T03:14:43.613Z,97001.38
2017-12-26T03:15:46.860Z,96995.34
2017-12-26T03:16:49.790Z,96988.98
2017-12-26T03:17:52.775Z,96983.58
2017-12-26T03:18:55.721Z,96988.50
2017-12-26T03:19:58.628Z,96992.23
2017-12-26T03:21:01.541Z,96989.47
2017-12-26T03:22:04.750Z,96987.97
2017-12-26T03:23:07.745Z,96988.56
2017-12-26T03:24:10.713Z,96981.45
2017-12-26T03:25:13.653Z,96976.01
2017-12-26T03:26:16.589Z,96969.11
2017-12-26T03:27:19.695Z,96972.56
2017-12-26T03:28:22.904Z,96969.56
2017-12-26T03:29:25.818Z,96970.44
2017-12-26T03:30:28.735Z,96957.51
2017-12-26T03:31:31.676Z,96957.66
2017-12-26T03:32:34.623Z,96947.92
2017-12-26T03:33:37.550Z,96948.22
2017-12-26T03:34:40.778Z,96948.42
2017-12-26T03:35:43.703Z,96950.81
2017-12-26T03:36:46.623Z,96944.98
2017-12-26T03:37:49.591Z,96942.30
2017-12-26T03:38:52.509Z,96942.16
2017-12-26T03:39:55.466Z,96938.09
2017-12-26T03:40:58.688Z,96937.29
2017-12-26T03:42:01.984Z,96934.79
2017-12-26T03:43:04.905Z,96933.53
2017-12-26T03:44:07.810Z,96937.85
2017-12-26T03:45:10.752Z,96931.45
2017-12-26T03:46:13.723Z,96931.92
2017-12-26T03:47:16.927Z,96931.30
2017-12-26T03:48:21.102Z,96924.17
2017-12-26T03:49:24.124Z,96928.36
2017-12-26T03:50:27.118Z,96929.11
2017-12-26T03:51:30.323Z,96921.38
2017-12-26T03:52:33.179Z,96924.52
2017-12-26T03:53:37.055Z,96918.72
2017-12-26T03:54:40.015Z,96919.91
2017-12-26T03:55:42.962Z,96919.45
2017-12-26T03:56:45.980Z,96922.83
2017-12-26T03:57:48.926Z,96916.59
2017-12-26T03:58:51.868Z,96909.94
2017-12-26T03:59:55.056Z,96907.90
2017-12-26T04:00:58.038Z,96911.49
2017-12-26T04:02:00.995Z,96905.75
2017-12-26T04:03:03.950Z,96895.49
2017-12-26T04:04:06.877Z,96887.02
2017-12-26T04:05:11.515Z,96886.80
2017-12-26T04:06:14.770Z,96880.28
2017-12-26T04:07:17.686Z,96884.72
2017-12-26T04:08:20.643Z,96883.24
2017-12-26T04:09:23.556Z,96880.64
2017-12-26T04:10:26.507Z,96878.45
2017-12-26T04:11:29.594Z,96884.29
2017-12-26T04:12:32.853Z,96880.62
2017-12-26T04:13:35.887Z,96880.11
2017-12-26T04:14:38.811Z,96876.86
2017-12-26T04:15:41.804Z,96874.03
2017-12-26T04:16:44.714Z,96877.96
2017-12-26T04:17:48.343Z,96869.88
2017-12-26T04:18:51.355Z,96871.20
2017-12-26T04:19:54.303Z,96859.16
2017-12-26T04:20:57.269Z,96860.53
2017-12-26T04:22:00.180Z,96865.78
2017-12-26T04:23:03.138Z,96863.13
2017-12-26T04:24:06.369Z,96859.74
2017-12-26T04:25:09.299Z,96857.16
2017-12-26T04:26:12.329Z,96861.32
2017-12-26T04:27:15.331Z,96859.74
2017-12-26T04:28:18.252Z,96856.52
2017-12-26T04:29:21.173Z,96848.64
2017-12-26T04:30:24.490Z,96849.08
2017-12-26T04:31:27.444Z,96845.02
2017-12-26T04:32:30.372Z,96844.38
2017-12-26T04:33:33.328Z,96846.17
2017-12-26T04:34:36.251Z,96839.31
2017-12-26T04:35:39.211Z,96843.39
2017-12-26T04:36:42.603Z,96827.24
2017-12-26T04:37:45.638Z,96837.30
2017-12-26T04:38:48.563Z,96831.78
2017-12-26T04:39:51.556Z,96834.53
2017-12-26T04:40:54.488Z,96823.11
2017-12-26T04:41:57.500Z,96825.45
2017-12-26T04:43:00.732Z,96823.70
2017-12-26T04:44:03.720Z,96803.77
2017-12-26T04:45:06.693Z,96792.06
2017-12-26T04:46:09.632Z,96788.47
2017-12-26T04:47:12.507Z,96784.86
2017-12-26T04:48:15.434Z,96786.72
2017-12-26T04:49:18.596Z,96779.42
2017-12-26T04:50:21.498Z,96794.04
2017-12-26T04:51:24.667Z,96788.30
2017-12-26T04:52:27.548Z,96789.41
2017-12-26T04:53:30.499Z,96781.01
2017-12-26T04:54:33.461Z,96782.21
2017-12-26T04:55:36.734Z,96784.02
2017-12-26T04:56:39.657Z,96775.28
2017-12-26T04:57:42.591Z,96772.81
2017-12-26T04:58:45.528Z,96771.52
2017-12-26T04:59:48.463Z,96754.70
2017-12-26T05:00:51.419Z,96762.48
2017-12-26T05:01:54.643Z,96768.86
2017-12-26T05:02:57.580Z,96757.99
2017-12-26T05:04:00.408Z,96757.23
2017-12-26T05:05:03.261Z,96757.75
2017-12-26T05:06:06.091Z,96754.47
2017-12-26T05:07:09.064Z,96747.61
2017-12-26T05:08:12.124Z,96741.59
2017-12-26T05:09:15.006Z,96739.27
2017-12-26T05:10:17.883Z,96741.33
2017-12-26T05:11:20.718Z,96734.18
2017-12-26T05:12:23.921Z,96731.89
2017-12-26T05:13:26.883Z,96724.80
2017-12-26T05:14:30.092Z,96726.89
2017-12-26T05:15:33.092Z,96725.30
2017-12-26T05:16:36.028Z,96710.70
2017-12-26T05:17:38.963Z,96711.90
2017-12-26T05:18:41.847Z,96701.84
2017-12-26T05:19:45.643Z,96709.46
2017-12-26T05:20:48.887Z,96706.44
2017-12-26T05:21:51.812Z,96706.38
2017-12-26T05:22:54.669Z,96710.39
2017-12-26T05:23:57.509Z,96706.84
2017-12-26T05:25:00.939Z,96706.94
2017-12-26T05:26:03.889Z,96705.25
2017-12-26T05:27:07.108Z,96702.81
2017-12-26T05:28:11.092Z,96705.05
2017-12-26T05:29:14.028Z,96696.05
2017-12-26T05:30:16.914Z,96693.82
2017-12-26T05:31:19.773Z,96692.79
2017-12-26T05:32:22.699Z,96697.05
2017-12-26T05:33:25.935Z,96689.73
2017-12-26T05:34:28.900Z,96683.23
2017-12-26T05:35:31.832Z,96691.88
2017-12-26T05:36:34.767Z,96681.65
2017-12-26T05:37:37.727Z,96676.06
2017-12-26T05:38:40.672Z,96675.66
2017-12-26T05:39:43.898Z,96678.24
2017-12-26T05:40:46.907Z,96673.17
2017-12-26T05:41:49.831Z,96666.51
2017-12-26T05:42:52.820Z,96661.09
2017-12-26T05:43:55.767Z,96669.67
2017-12-26T05:44:58.738Z,96663.88
2017-12-26T05:46:01.979Z,96661.42
2017-12-26T05:47:04.910Z,96654.30
2017-12-26T05:48:08.280Z,96655.53
2017-12-26T05:49:11.216Z,96656.01
2017-12-26T05:50:14.163Z,96651.08
2017-12-26T05:51:18.798Z,96653.75
2017-12-26T05:52:22.026Z,96651.80
2017-12-26T05:53:24.957Z,96655.13
2017-12-26T05:54:27.962Z,96652.84
2017-12-26T05:55:30.966Z,96657.04
2017-12-26T05:56:33.899Z,96657.45
2017-12-26T05:57:36.984Z,96651.66
2017-12-26T05:58:40.203Z,96645.70
2017-12-26T05:59:43.169Z,96647.37
2017-12-26T06:00:46.167Z,96643.48
2017-12-26T06:01:49.085Z,96651.25
2017-12-26T06:02:52.015Z,96645.48
2017-12-26T06:03:54.950Z,96638.22
2017-12-26T06:04:58.222Z,96641.06
2017-12-26T06:06:01.800Z,96638.88
2017-12-26T06:07:04.787Z,96633.75
2017-12-26T06:08:07.860Z,96639.77
2017-12-26T06:09:10.834Z,96635.83
2017-12-26T06:10:13.804Z,96629.11
2017-12-26T06:11:17.024Z,96634.81
2017-12-26T06:12:19.990Z,96638.42
2017-12-26T06:13:23.555Z,96627.70
2017-12-26T06:14:26.718Z,96630.50
2017-12-26T06:15:29.684Z,96627.17
2017-12-26T06:16:32.621Z,96624.23
2017-12-26T06:17:35.885Z,96627.70
2017-12-26T06:18:38.902Z,96620.28
2017-12-26T06:19:41.856Z,96623.54
2017-12-26T06:20:44.778Z,96623.32
2017-12-26T06:21:47.833Z,96618.67
2017-12-26T06:22:50.757Z,96623.60
2017-12-26T06:23:54.000Z,96607.50
2017-12-26T06:24:57.018Z,96605.78
2017-12-26T06:25:59.972Z,96612.33
2017-12-26T06:27:02.904Z,96612.02
2017-12-26T06:28:05.858Z,96610.77
2017-12-26T06:29:08.850Z,96599.08
2017-12-26T06:30:12.069Z,96602.06
2017-12-26T06:31:14.893Z,96597.14
2017-12-26T06:32:17.720Z,96592.32
2017-12-26T06:33:20.597Z,96594.05
2017-12-26T06:34:23.479Z,96586.14
2017-12-26T06:35:26.385Z,96587.05
2017-12-26T06:36:29.537Z,96571.82
2017-12-26T06:37:32.458Z,96563.53
2017-12-26T06:38:35.337Z,96571.89
2017-12-26T06:39:38.251Z,96563.98
2017-12-26T06:40:41.189Z,96565.61
2017-12-26T06:41:44.185Z,96569.98
2017-12-26T06:42:47.430Z,96565.05
2017-12-26T06:43:50.382Z,96570.25
2017-12-26T06:44:53.294Z,96578.69
2017-12-26T06:45:56.281Z,96578.90
2017-12-26T06:46:59.208Z,96572.09
2017-12-26T06:48:02.175Z,96579.67
2017-12-26T06:49:05.414Z,96570.10
2017-12-26T06:50:08.338Z,96571.95
2017-12-26T06:51:11.276Z,96577.67
2017-12-26T06:52:14.287Z,96573.38
2017-12-26T06:53:17.683Z,96571.75
2017-12-26T06:54:20.728Z,96580.10
2017-12-26T06:55:23.977Z,96571.56
2017-12-26T06:56:26.895Z,96571.87
2017-12-26T06:57:29.892Z,96579.95
2017-12-26T06:58:32.848Z,96580.75
2017-12-26T06:59:35.703Z,96555.33
2017-12-26T07:00:38.602Z,96560.97
2017-12-26T07:01:41.787Z,96566.38
2017-12-26T07:02:44.717Z,96564.95
2017-12-26T07:03:47.660Z,96552.42
2017-12-26T07:04:50.833Z,96572.20
2017-12-26T07:05:53.766Z,96579.63
2017-12-26T07:06:56.697Z,96581.41
2017-12-26T07:07:59.953Z,96586.02
2017-12-26T07:09:02.924Z,96594.51
2017-12-26T07:10:05.879Z,96575.08
2017-12-26T07:11:08.779Z,96569.03
2017-12-26T07:12:11.726Z,96570.33
2017-12-26T07:13:14.685Z,96569.02
2017-12-26T07:14:17.913Z,96571.64
2017-12-26T07:15:21.562Z,96565.97
2017-12-26T07:16:24.560Z,96576.08
2017-12-26T07:17:27.581Z,96567.30
2017-12-26T07:18:30.506Z,96570.09
2017-12-26T07:19:37.404Z,96575.18
2017-12-26T07:20:44.184Z,96575.26
2017-12-26T07:22:49.409Z,96579.92
2017-12-26T07:23:52.253Z,96556.45
2017-12-26T07:24:55.189Z,96558.74
2017-12-26T07:25:58.617Z,96573.76
2017-12-26T07:27:01.587Z,96556.66
2017-12-26T07:28:04.620Z,96569.47
2017-12-26T07:29:07.545Z,96565.63
2017-12-26T07:30:10.531Z,96573.45
2017-12-26T07:31:13.662Z,96563.79
2017-12-26T07:32:16.885Z,96576.16
2017-12-26T07:33:19.704Z,96557.44
2017-12-26T07:34:22.473Z,96559.45
2017-12-26T07:35:25.450Z,96573.14
2017-12-26T07:36:28.300Z,96552.95
2017-12-26T07:37:31.205Z,96578.89
2017-12-26T07:38:34.318Z,96577.21
2017-12-26T07:39:37.173Z,96570.74
2017-12-26T07:40:40.143Z,96626.86
2017-12-26T07:41:43.188Z,96546.86
2017-12-26T07:42:46.133Z,96554.60
2017-12-26T07:43:49.164Z,96547.13
2017-12-26T07:44:52.408Z,96598.61
2017-12-26T07:45:55.423Z,96548.96
2017-12-26T07:46:58.351Z,96540.87
2017-12-26T07:48:01.371Z,96541.49
2017-12-26T07:49:04.335Z,96541.05
2017-12-26T07:50:07.956Z,96563.37
2017-12-26T07:51:11.237Z,96596.66
2017-12-26T07:52:14.223Z,96590.17
2017-12-26T07:53:17.223Z,96546.33
2017-12-26T07:54:20.162Z,96562.02
2017-12-26T07:55:23.106Z,96560.91
2017-12-26T07:56:26.044Z,96542.23
2017-12-26T07:57:29.275Z,96565.14
2017-12-26T07:58:32.318Z,96530.69
2017-12-26T07:59:35.250Z,96582.74
2017-12-26T08:00:38.348Z,96567.42
2017-12-26T08:01:41.286Z,96558.75
2017-12-26T08:02:44.940Z,96561.20
2017-12-26T08:03:48.187Z,96553.05
2017-12-26T08:04:51.109Z,96565.16
2017-12-26T08:05:54.295Z,96552.47
2017-12-26T08:06:57.252Z,96568.95
2017-12-26T08:08:00.158Z,96576.69
2017-12-26T08:09:03.475Z,96586.70
2017-12-26T08:10:06.726Z,96603.09
2017-12-26T08:11:09.649Z,96571.14
2017-12-26T08:12:12.592Z,96573.42
2017-12-26T08:13:15.542Z,96608.00
2017-12-26T08:14:18.546Z,96562.33
2017-12-26T08:15:21.570Z,96558.41
2017-12-26T08:16:24.800Z,96555.16
2017-12-26T08:17:27.719Z,96546.27
2017-12-26T08:18:30.649Z,96544.64
2017-12-26T08:19:33.561Z,96551.14
2017-12-26T08:20:36.416Z,96548.27
2017-12-26T08:21:39.356Z,96547.77
2017-12-26T08:22:42.558Z,96551.67
2017-12-26T08:23:45.481Z,96578.72
2017-12-26T08:24:48.419Z,96552.77
2017-12-26T08:25:51.358Z,96541.36
2017-12-26T08:26:54.326Z,96542.55
2017-12-26T08:27:57.280Z,96559.81
2017-12-26T08:29:00.418Z,96542.41
2017-12-26T08:30:03.269Z,96556.33
2017-12-26T08:31:06.125Z,96566.06
2017-12-26T08:32:09.019Z,96551.20
2017-12-26T08:33:11.971Z,96546.11
2017-12-26T08:34:14.987Z,96546.16
2017-12-26T08:35:19.137Z,96544.20
2017-12-26T08:36:22.098Z,96573.66
2017-12-26T08:37:25.043Z,96549.19
2017-12-26T08:38:28.069Z,96565.33
2017-12-26T08:39:31.017Z,96546.92
2017-12-26T08:40:34.121Z,96544.30
2017-12-26T08:41:37.400Z,96548.11
2017-12-26T08:42:40.362Z,96550.27
2017-12-26T08:43:43.363Z,96529.28
2017-12-26T08:44:46.300Z,96519.12
2017-12-26T08:45:49.245Z,96545.77
2017-12-26T08:46:52.201Z,96540.23
2017-12-26T08:47:55.484Z,96537.08
2017-12-26T08:48:58.435Z,96532.58
2017-12-26T08:50:01.382Z,96534.59
2017-12-26T08:51:04.346Z,96543.71
2017-12-26T08:52:07.289Z,96543.50
2017-12-26T08:53:10.222Z,96554.45
2017-12-26T08:54:14.549Z,96540.61
2017-12-26T08:55:17.492Z,96526.05
2017-12-26T08:56:20.467Z,96556.59
2017-12-26T08:57:23.431Z,96528.34
2017-12-26T08:58:26.312Z,96531.28
2017-12-26T08:59:29.187Z,96531.10
2017-12-26T09:00:32.551Z,96528.62
2017-12-26T09:01:35.476Z,96540.56
2017-12-26T09:02:38.452Z,96534.74
2017-12-26T09:03:41.429Z,96542.41
2017-12-26T09:04:44.452Z,96534.69
2017-12-26T09:05:48.076Z,96559.55
2017-12-26T09:06:51.450Z,96545.16
2017-12-26T09:07:54.386Z,96482.39
2017-12-26T09:08:57.290Z,96526.66
2017-12-26T09:10:00.306Z,96528.39
2017-12-26T09:11:03.351Z,96518.19
2017-12-26T09:12:06.408Z,96530.52
2017-12-26T09:13:09.653Z,96526.49
2017-12-26T09:14:12.573Z,96553.97
2017-12-26T09:15:15.529Z,96552.83
2017-12-26T09:16:18.492Z,96562.87
2017-12-26T09:17:21.501Z,96509.45
2017-12-26T09:18:24.531Z,96540.73
2017-12-26T09:19:27.924Z,96514.30
2017-12-26T09:20:30.932Z,96535.47
2017-12-26T09:21:33.833Z,96546.27
2017-12-26T09:22:36.664Z,96543.88
2017-12-26T09:23:39.654Z,96508.55
2017-12-26T09:24:42.504Z,96532.19
2017-12-26T09:25:45.684Z,96558.92
2017-12-26T09:26:48.536Z,96528.47
2017-12-26T09:27:51.370Z,96535.34
2017-12-26T09:28:54.305Z,96549.25
2017-12-26T09:29:57.274Z,96536.43
2017-12-26T09:31:00.245Z,96542.19
2017-12-26T09:32:03.686Z,96560.05
2017-12-26T09:33:06.581Z,96544.12
2017-12-26T09:34:10.304Z,96544.25
2017-12-26T09:35:13.220Z,96555.61
2017-12-26T09:36:16.166Z,96551.08
2017-12-26T09:37:19.102Z,96559.81
2017-12-26T09:38:22.564Z,96561.55
2017-12-26T09:39:25.434Z,96547.17
2017-12-26T09:40:28.355Z,96546.52
2017-12-26T09:41:31.313Z,96553.00
2017-12-26T09:42:34.267Z,96569.09
2017-12-26T09:43:37.105Z,96579.98
2017-12-26T09:44:40.290Z,96558.19
2017-12-26T09:45:43.567Z,96579.89
2017-12-26T09:46:46.436Z,96540.37
2017-12-26T09:47:49.310Z,96569.64
2017-12-26T09:48:52.710Z,96593.44
2017-12-26T09:49:55.699Z,96613.83
2017-12-26T09:50:58.847Z,96610.52
2017-12-26T09:52:01.774Z,96611.66
2017-12-26T09:53:04.665Z,96599.13
2017-12-26T09:54:07.673Z,96598.75
2017-12-26T09:55:10.628Z,96601.33
2017-12-26T09:56:13.644Z,96618.75
2017-12-26T09:57:16.879Z,96584.57
2017-12-26T09:58:19.840Z,96594.05
2017-12-26T09:59:22.768Z,96611.45
2017-12-26T10:00:25.978Z,96602.69
2017-12-26T10:01:28.998Z,96599.55
2017-12-26T10:02:31.981Z,96623.78
2017-12-26T10:03:35.187Z,96622.64
2017-12-26T10:04:38.185Z,96620.48
2017-12-26T10:05:41.120Z,96616.98
2017-12-26T10:06:44.093Z,96612.19
2017-12-26T10:07:47.127Z,96627.98
2017-12-26T10:08:50.083Z,96623.55
2017-12-26T10:09:53.399Z,96631.92
2017-12-26T10:10:56.376Z,96631.72
2017-12-26T10:11:59.280Z,96629.50
2017-12-26T10:13:02.285Z,96637.20
2017-12-26T10:14:05.215Z,96619.47
2017-12-26T10:15:08.283Z,96602.98
2017-12-26T10:16:11.464Z,96632.01
2017-12-26T10:17:14.582Z,96632.59
2017-12-26T10:18:17.547Z,96625.05
2017-12-26T10:19:20.519Z,96637.20
2017-12-26T10:20:23.530Z,96637.28
2017-12-26T10:21:26.433Z,96630.20
2017-12-26T10:22:29.702Z,96633.81
2017-12-26T10:23:32.662Z,96651.83
2017-12-26T10:24:35.639Z,96644.09
2017-12-26T10:25:38.669Z,96654.12
2017-12-26T10:26:41.612Z,96646.66
2017-12-26T10:27:44.663Z,96664.22
2017-12-26T10:28:48.128Z,96663.84
2017-12-26T10:29:51.086Z,96648.77
2017-12-26T10:30:54.039Z,96650.57
2017-12-26T10:31:57.121Z,96648.78
2017-12-26T10:33:00.087Z,96647.91
2017-12-26T10:34:03.052Z,96647.48
2017-12-26T10:35:06.272Z,96643.39
2017-12-26T10:36:09.502Z,96646.38
2017-12-26T10:37:12.467Z,96647.45
2017-12-26T10:38:16.514Z,96643.16
2017-12-26T10:39:19.585Z,96653.25
2017-12-26T10:40:23.080Z,96651.03
2017-12-26T10:41:26.320Z,96650.54
2017-12-26T10:42:29.301Z,96653.31
2017-12-26T10:43:32.259Z,96647.42
2017-12-26T10:44:35.252Z,96646.48
2017-12-26T10:45:38.240Z,96651.83
2017-12-26T10:46:41.184Z,96648.88
2017-12-26T10:47:44.452Z,96653.84
2017-12-26T10:48:47.407Z,96636.14
2017-12-26T10:49:50.407Z,96647.91
2017-12-26T10:50:53.381Z,96657.31
2017-12-26T10:51:56.488Z,96655.47
2017-12-26T10:52:59.502Z,96665.13
2017-12-26T10:54:02.761Z,96658.32
2017-12-26T10:55:05.731Z,96664.88
2017-12-26T10:56:08.673Z,96657.14
2017-12-26T10:57:11.723Z,96661.06
2017-12-26T10:58:14.713Z,96662.17
2017-12-26T10:59:17.652Z,96654.61
2017-12-26T11:00:20.976Z,96666.82
2017-12-26T11:01:25.056Z,96660.54
2017-12-26T11:02:29.946Z,96669.15
2017-12-26T11:03:32.816Z,96666.86
2017-12-26T11:04:35.644Z,96666.44
2017-12-26T11:05:38.497Z,96654.12
2017-12-26T11:06:41.694Z,96661.34
2017-12-26T11:07:44.683Z,96667.38
2017-12-26T11:08:47.635Z,96665.41
2017-12-26T11:09:50.583Z,96651.41
2017-12-26T11:10:53.545Z,96650.09
2017-12-26T11:11:56.508Z,96649.89
2017-12-26T11:12:59.745Z,96659.33
2017-12-26T11:14:02.755Z,96652.08
2017-12-26T11:15:06.037Z,96655.16
2017-12-26T11:16:08.987Z,96648.94
2017-12-26T11:17:11.933Z,96652.77
2017-12-26T11:18:14.876Z,96644.08
2017-12-26T11:19:18.167Z,96646.77
2017-12-26T11:20:21.156Z,96645.55
2017-12-26T11:21:24.135Z,96651.23
2017-12-26T11:22:27.118Z,96659.28
2017-12-26T11:23:30.076Z,96653.67
2017-12-26T11:24:33.028Z,96653.73
2017-12-26T11:25:36.455Z,96643.39
2017-12-26T11:26:39.466Z,96652.69
2017-12-26T11:27:42.369Z,96656.09
2017-12-26T11:28:45.332Z,96657.03
2017-12-26T11:29:48.173Z,96653.91
2017-12-26T11:30:51.035Z,96660.22
2017-12-26T11:31:54.148Z,96653.98
2017-12-26T11:32:57.407Z,96660.89
2017-12-26T11:34:01.249Z,96660.44
2017-12-26T11:35:04.279Z,96668.55
2017-12-26T11:36:07.225Z,96658.22
2017-12-26T11:37:10.195Z,96668.59
2017-12-26T11:38:13.454Z,96672.14
2017-12-26T11:39:16.377Z,96669.59
2017-12-26T11:40:19.308Z,96670.39
2017-12-26T11:41:22.598Z,96660.92
2017-12-26T11:42:25.566Z,96677.47
2017-12-26T11:43:28.597Z,96671.86
2017-12-26T11:44:31.824Z,96674.25
2017-12-26T11:45:34.916Z,96672.02
2017-12-26T11:46:38.013Z,96677.88
2017-12-26T11:47:40.938Z,96676.09
2017-12-26T11:48:43.802Z,96671.47
2017-12-26T11:49:46.754Z,96678.27
2017-12-26T11:50:50.031Z,96677.83
2017-12-26T11:51:53.036Z,96675.30
2017-12-26T11:52:56.027Z,96671.54
2017-12-26T11:53:58.977Z,96676.55
2017-12-26T11:55:02.516Z,96676.89
2017-12-26T11:56:05.455Z,96677.45
2017-12-26T11:57:08.435Z,96685.36
2017-12-26T11:58:11.430Z,96678.97
2017-12-26T11:59:14.436Z,96675.02
2017-12-26T12:00:18.248Z,96677.86
2017-12-26T12:01:21.230Z,96678.20
2017-12-26T12:02:24.449Z,96677.51
2017-12-26T12:03:28.971Z,96670.61
2017-12-26T12:04:31.939Z,96669.36
2017-12-26T12:05:34.912Z,96676.36
2017-12-26T12:06:37.933Z,96677.45
2017-12-26T12:07:40.951Z,96673.52
2017-12-26T12:08:44.211Z,96676.75
2017-12-26T12:09:47.242Z,96667.20
2017-12-26T12:10:50.221Z,96686.05
2017-12-26T12:11:53.211Z,96685.25
2017-12-26T12:12:56.157Z,96681.36
2017-12-26T12:13:59.097Z,96670.99
2017-12-26T12:15:02.361Z,96683.63
2017-12-26T12:16:05.415Z,96687.09
2017-12-26T12:17:08.364Z,96691.84
2017-12-26T12:18:11.545Z,96693.68
2017-12-26T12:19:14.661Z,96684.32
2017-12-26T12:20:17.810Z,96682.58
2017-12-26T12:21:21.188Z,96689.69